Port Greville, Canada
Current Conditions -  °F | °C
As of 11:00 AM on Thursday 18 Dec 2014 (Local Time) from CYZX Reporting Station
Rain Showers Rain Showers  
Wind Chill: 32°   Ceiling: 1600
Heat Index: 39°   Visibility: 8mi
Dew Point: 37°   Wind: 12mph
Humidity: 93%   Direction: 220°SW
Pressure: 29.41"   Gusts: 20mph
Location:  45.42°N, 64.55°W
Report Text: CYZX 181500Z 22010G17KT 8SM -SHRA FEW008 BKN016 BKN030 04/03 A2941 RMK SF2SC3SC2 WNDY HILL 23015KT SLP959
Loading
Personal Weather Stations






























Interactive Weather Map New forecast layout! Learn more

10-Day Weather Forecast

Advertisements
Track Severe Weather on mobile